Time;durP1;ratioP1;P1;durP2;ratioP2;P2;SDS_P1;SDS_P2;PMS_P1;PMS_P2;Temp;Humidity;BMP_temperature;BMP_pressure;BME280_temperature;BME280_humidity;BME280_pressure;Samples;Min_cycle;Max_cycle;Signal;HPM_P1;HPM_P2
2023/06/02 00:02:13;;;;;;;12.35;11.55;;;;;;;;;;5040656;28;20133;-62
2023/06/02 00:04:40;;;;;;;11.63;10.82;;;;;;;;;;5041552;28;20742;-63
2023/06/02 00:07:07;;;;;;;12.77;11.98;;;;;;;;;;5040458;28;20125;-61
2023/06/02 00:09:41;;;;;;;13.80;13.00;;;;;;;;;;5037992;28;20475;-51
2023/06/02 00:12:07;;;;;;;15.85;14.95;;;;;;;;;;5036361;28;20032;-62
2023/06/02 00:14:33;;;;;;;13.80;13.00;;;;;;;;;;5039740;28;20112;-51
2023/06/02 00:17:02;;;;;;;15.80;14.80;;;;;;;;;;5039747;28;20117;-51
2023/06/02 00:19:30;;;;;;;20.13;19.02;;;;;;;;;;5040122;28;20466;-49
2023/06/02 00:22:05;;;;;;;21.08;19.77;;;;;;;;;;5034741;28;20029;-53
2023/06/02 00:24:30;;;;;;;23.85;22.55;;;;;;;;;;5037118;28;20037;-63
2023/06/02 00:26:56;;;;;;;23.42;22.13;;;;;;;;;;5033808;28;20133;-50
2023/06/02 00:29:21;;;;;;;24.77;23.38;;;;;;;;;;5035883;28;20091;-52
2023/06/02 00:31:46;;;;;;;30.45;28.77;;;;;;;;;;5040815;28;20051;-51
2023/06/02 00:34:12;;;;;;;31.20;29.50;;;;;;;;;;5037082;28;20952;-52
2023/06/02 00:36:37;;;;;;;30.30;28.70;;;;;;;;;;5036082;28;20029;-51
2023/06/02 00:39:03;;;;;;;30.85;29.20;;;;;;;;;;5032172;28;20099;-62
2023/06/02 00:41:29;;;;;;;34.10;32.30;;;;;;;;;;5036700;28;20033;-62
2023/06/02 00:43:54;;;;;;;38.70;36.60;;;;;;;;;;5038383;28;20033;-62
2023/06/02 00:46:20;;;;;;;37.50;35.55;;;;;;;;;;5035377;28;21042;-51
2023/06/02 00:48:48;;;;;;;39.42;37.28;;;;;;;;;;5033774;28;20071;-62
2023/06/02 00:51:14;;;;;;;48.08;45.58;;;;;;;;;;5034740;28;20049;-52
2023/06/02 00:53:39;;;;;;;46.47;44.05;;;;;;;;;;5035101;28;20037;-54
2023/06/02 00:56:05;;;;;;;46.20;43.80;;;;;;;;;;5035565;28;20036;-62
2023/06/02 00:58:37;;;;;;;49.42;46.83;;;;;;;;;;5039451;28;20033;-54
2023/06/02 01:01:02;;;;;;;52.63;49.85;;;;;;;;;;5039211;28;20044;-54
2023/06/02 01:03:28;;;;;;;42.60;40.35;;;;;;;;;;5036513;28;20033;-64
2023/06/02 01:05:55;;;;;;;51.67;49.00;;;;;;;;;;5038355;28;20025;-52
2023/06/02 01:08:21;;;;;;;57.53;54.58;;;;;;;;;;5035477;28;20287;-53
2023/06/02 01:10:47;;;;;;;58.55;55.58;;;;;;;;;;5034440;28;20351;-50
2023/06/02 01:13:12;;;;;;;62.55;59.38;;;;;;;;;;5035172;28;20041;-53
2023/06/02 01:15:38;;;;;;;64.35;61.00;;;;;;;;;;5036059;28;20032;-51
2023/06/02 01:18:14;;;;;;;65.60;62.25;;;;;;;;;;5034328;28;20714;-63
2023/06/02 01:20:44;;;;;;;67.03;63.65;;;;;;;;;;5034282;28;20044;-63
2023/06/02 01:23:15;;;;;;;74.93;71.13;;;;;;;;;;5032252;28;20052;-63
2023/06/02 01:25:41;;;;;;;73.65;69.97;;;;;;;;;;5033241;28;20744;-53
2023/06/02 01:28:07;;;;;;;74.43;70.70;;;;;;;;;;5037871;28;20053;-53
2023/06/02 01:30:33;;;;;;;72.88;69.10;;;;;;;;;;5036051;28;20139;-50
2023/06/02 01:33:22;;;;;;;69.85;66.30;;;;;;;;;;5033104;28;20044;-51
2023/06/02 01:35:50;;;;;;;68.75;65.30;;;;;;;;;;5032364;28;20037;-64
2023/06/02 01:38:18;;;;;;;70.22;66.65;;;;;;;;;;5036092;28;20834;-64
2023/06/02 01:40:44;;;;;;;66.53;63.17;;;;;;;;;;5034472;28;20055;-63
2023/06/02 01:43:11;;;;;;;64.25;61.03;;;;;;;;;;5037069;28;20033;-63
2023/06/02 01:45:38;;;;;;;61.45;58.35;;;;;;;;;;5034741;28;20049;-63
2023/06/02 01:48:05;;;;;;;61.25;58.10;;;;;;;;;;5037013;28;20158;-63
2023/06/02 01:50:31;;;;;;;59.08;55.97;;;;;;;;;;5034523;28;20108;-63
2023/06/02 01:52:57;;;;;;;53.92;51.15;;;;;;;;;;5034159;28;20043;-63
2023/06/02 01:55:22;;;;;;;50.85;47.97;;;;;;;;;;5033506;28;20507;-63
2023/06/02 01:57:48;;;;;;;50.42;47.83;;;;;;;;;;5035484;28;20040;-51
2023/06/02 02:00:14;;;;;;;52.63;49.92;;;;;;;;;;5035700;28;20124;-52
2023/06/02 02:02:40;;;;;;;49.13;46.63;;;;;;;;;;5038715;28;20177;-50
2023/06/02 02:05:05;;;;;;;48.50;45.97;;;;;;;;;;5036364;28;20174;-64
2023/06/02 02:07:31;;;;;;;48.20;45.67;;;;;;;;;;5034984;28;20133;-64
2023/06/02 02:09:56;;;;;;;49.65;47.13;;;;;;;;;;5037342;28;20439;-64
2023/06/02 02:12:22;;;;;;;49.45;46.90;;;;;;;;;;5032952;28;20104;-64
2023/06/02 02:14:50;;;;;;;46.78;44.38;;;;;;;;;;5036685;28;20044;-63
2023/06/02 02:17:16;;;;;;;46.38;43.95;;;;;;;;;;5033641;28;20040;-54
2023/06/02 02:19:42;;;;;;;45.53;43.15;;;;;;;;;;5034851;28;20037;-53
2023/06/02 02:22:07;;;;;;;45.42;43.08;;;;;;;;;;5035940;28;20040;-53
2023/06/02 02:24:33;;;;;;;44.10;41.85;;;;;;;;;;5033722;28;20040;-51
2023/06/02 02:26:58;;;;;;;45.38;43.05;;;;;;;;;;5034241;28;20375;-54
2023/06/02 02:29:23;;;;;;;45.17;42.72;;;;;;;;;;5033509;28;20040;-51
2023/06/02 02:31:48;;;;;;;46.85;44.45;;;;;;;;;;5033014;28;20505;-66
2023/06/02 02:34:14;;;;;;;44.10;41.83;;;;;;;;;;5036485;28;20049;-63
2023/06/02 02:36:39;;;;;;;40.45;38.35;;;;;;;;;;5033950;28;20033;-50
2023/06/02 02:39:05;;;;;;;43.05;40.85;;;;;;;;;;5036184;28;20044;-52
2023/06/02 02:41:30;;;;;;;41.30;39.15;;;;;;;;;;5034656;28;20029;-52
2023/06/02 02:43:56;;;;;;;34.58;32.78;;;;;;;;;;5032893;28;20118;-63
2023/06/02 02:46:21;;;;;;;40.45;38.38;;;;;;;;;;5032897;28;20040;-63
2023/06/02 02:48:46;;;;;;;33.60;31.65;;;;;;;;;;5034377;28;20638;-63
2023/06/02 02:51:13;;;;;;;38.63;36.20;;;;;;;;;;5034965;28;20045;-64
2023/06/02 02:53:38;;;;;;;37.15;35.20;;;;;;;;;;5033237;28;20108;-63
2023/06/02 02:56:04;;;;;;;35.45;33.60;;;;;;;;;;5035611;28;20025;-63
2023/06/02 02:58:32;;;;;;;33.45;31.70;;;;;;;;;;5036253;28;20029;-63
2023/06/02 03:00:57;;;;;;;35.30;33.45;;;;;;;;;;5036328;28;20029;-63
2023/06/02 03:03:23;;;;;;;32.13;30.27;;;;;;;;;;5034679;28;20481;-63
2023/06/02 03:05:49;;;;;;;32.80;31.00;;;;;;;;;;5035143;28;20029;-52
2023/06/02 03:08:17;;;;;;;33.92;32.15;;;;;;;;;;5034451;28;20041;-52
2023/06/02 03:10:44;;;;;;;33.10;31.35;;;;;;;;;;5034438;28;20108;-53
2023/06/02 03:13:10;;;;;;;32.60;30.90;;;;;;;;;;5032781;28;20040;-52
2023/06/02 03:15:36;;;;;;;31.00;29.33;;;;;;;;;;5034790;28;20093;-54
2023/06/02 03:18:03;;;;;;;30.38;28.77;;;;;;;;;;5030989;28;20029;-52
2023/06/02 03:20:29;;;;;;;31.13;29.05;;;;;;;;;;5029970;28;20047;-52
2023/06/02 03:22:55;;;;;;;32.67;30.92;;;;;;;;;;5035465;28;20041;-52
2023/06/02 03:25:21;;;;;;;27.20;25.75;;;;;;;;;;5033349;28;20415;-53
2023/06/02 03:27:50;;;;;;;27.63;26.13;;;;;;;;;;5030685;28;20025;-63
2023/06/02 03:30:16;;;;;;;28.00;26.42;;;;;;;;;;5033756;28;20029;-64
2023/06/02 03:32:41;;;;;;;24.55;23.23;;;;;;;;;;5033150;28;20052;-63
2023/06/02 03:35:07;;;;;;;28.05;26.48;;;;;;;;;;5035613;28;20033;-64
2023/06/02 03:37:32;;;;;;;26.50;25.05;;;;;;;;;;5040276;28;20024;-63
2023/06/02 03:39:58;;;;;;;27.10;25.58;;;;;;;;;;5032849;28;20447;-63
2023/06/02 03:42:23;;;;;;;24.35;23.02;;;;;;;;;;5030806;28;20671;-53
2023/06/02 03:44:48;;;;;;;25.10;23.40;;;;;;;;;;5033756;28;20379;-64
2023/06/02 03:47:15;;;;;;;24.95;23.60;;;;;;;;;;5034330;28;20482;-62
2023/06/02 03:49:40;;;;;;;24.15;22.77;;;;;;;;;;5032841;28;20463;-63
2023/06/02 03:52:06;;;;;;;25.05;23.67;;;;;;;;;;5033205;28;20029;-63
2023/06/02 03:54:31;;;;;;;22.95;21.70;;;;;;;;;;5037892;28;20036;-63
2023/06/02 03:56:56;;;;;;;21.85;20.65;;;;;;;;;;5038915;28;20116;-61
2023/06/02 03:59:22;;;;;;;21.90;19.65;;;;;;;;;;5031843;28;20040;-61
2023/06/02 04:01:47;;;;;;;21.73;20.52;;;;;;;;;;5035870;28;20029;-62
2023/06/02 04:04:12;;;;;;;22.05;20.75;;;;;;;;;;5036817;28;20071;-49
2023/06/02 04:06:40;;;;;;;22.92;21.63;;;;;;;;;;5035042;28;20056;-50
2023/06/02 04:09:07;;;;;;;23.73;21.48;;;;;;;;;;5039195;28;20110;-61
2023/06/02 04:11:32;;;;;;;22.65;21.40;;;;;;;;;;5035941;28;20056;-51
2023/06/02 04:13:58;;;;;;;20.60;19.45;;;;;;;;;;5034605;28;20167;-48
2023/06/02 04:16:23;;;;;;;18.35;17.33;;;;;;;;;;5035930;28;20037;-52
2023/06/02 04:18:48;;;;;;;19.38;18.30;;;;;;;;;;5036843;28;20026;-52
2023/06/02 04:21:14;;;;;;;18.17;17.17;;;;;;;;;;5037711;28;20029;-62
2023/06/02 04:23:39;;;;;;;19.00;17.95;;;;;;;;;;5036406;28;20108;-62
2023/06/02 04:26:04;;;;;;;19.30;18.23;;;;;;;;;;5033191;28;20026;-52
2023/06/02 04:28:30;;;;;;;19.00;17.70;;;;;;;;;;5035198;28;20714;-49
2023/06/02 04:30:58;;;;;;;15.30;14.40;;;;;;;;;;5031207;28;20175;-53
2023/06/02 04:33:24;;;;;;;16.45;15.55;;;;;;;;;;5033825;28;20035;-54
2023/06/02 04:35:49;;;;;;;20.02;18.52;;;;;;;;;;5037268;28;20043;-53
2023/06/02 04:38:14;;;;;;;19.48;18.27;;;;;;;;;;5034868;28;20362;-61
2023/06/02 04:40:41;;;;;;;17.20;16.05;;;;;;;;;;5035911;28;20055;-61
2023/06/02 04:43:07;;;;;;;17.60;16.42;;;;;;;;;;5035260;28;20033;-61
2023/06/02 04:45:33;;;;;;;16.70;15.68;;;;;;;;;;5036144;28;20024;-61
2023/06/02 04:47:59;;;;;;;16.25;15.32;;;;;;;;;;5034728;28;20335;-61
2023/06/02 04:50:25;;;;;;;15.13;14.25;;;;;;;;;;5036049;28;20033;-62
2023/06/02 04:52:50;;;;;;;17.67;16.17;;;;;;;;;;5044508;28;20498;-49
2023/06/02 04:55:16;;;;;;;15.68;14.77;;;;;;;;;;5038386;28;20583;-51
2023/06/02 04:57:41;;;;;;;15.68;14.77;;;;;;;;;;5032893;28;20037;-51
2023/06/02 05:00:08;;;;;;;17.17;16.17;;;;;;;;;;5035394;28;20201;-61
2023/06/02 05:02:34;;;;;;;16.02;15.13;;;;;;;;;;5036657;28;20033;-52
2023/06/02 05:05:02;;;;;;;13.77;12.95;;;;;;;;;;5037100;28;20034;-50
2023/06/02 05:07:27;;;;;;;14.43;13.57;;;;;;;;;;5033244;28;20159;-48
2023/06/02 05:09:53;;;;;;;15.63;14.15;;;;;;;;;;5038401;28;20490;-63
2023/06/02 05:12:18;;;;;;;13.70;12.90;;;;;;;;;;5035345;28;20626;-53
2023/06/02 05:14:44;;;;;;;13.18;12.38;;;;;;;;;;5033413;28;20712;-50
2023/06/02 05:17:09;;;;;;;14.30;13.48;;;;;;;;;;5034439;28;20029;-62
2023/06/02 05:19:36;;;;;;;16.80;14.65;;;;;;;;;;5034461;28;20467;-50
2023/06/02 05:22:02;;;;;;;15.63;14.73;;;;;;;;;;5036435;28;20527;-53
2023/06/02 05:24:28;;;;;;;12.70;11.95;;;;;;;;;;5035460;28;20730;-51
2023/06/02 05:26:54;;;;;;;13.52;12.73;;;;;;;;;;5033264;28;20038;-53
2023/06/02 05:29:19;;;;;;;12.80;12.00;;;;;;;;;;5033915;28;20435;-51
2023/06/02 05:31:45;;;;;;;9.73;9.05;;;;;;;;;;5035151;28;20055;-53
2023/06/02 05:34:10;;;;;;;11.60;10.90;;;;;;;;;;5033010;28;20063;-53
2023/06/02 05:36:36;;;;;;;12.70;11.90;;;;;;;;;;5035579;28;20355;-50
2023/06/02 05:39:02;;;;;;;10.20;9.50;;;;;;;;;;5035829;28;20041;-51
2023/06/02 05:41:30;;;;;;;9.15;8.55;;;;;;;;;;5033918;28;20048;-51
2023/06/02 05:43:56;;;;;;;11.13;10.43;;;;;;;;;;5035874;28;20036;-52
2023/06/02 05:46:24;;;;;;;10.43;9.73;;;;;;;;;;5034453;28;20055;-52
2023/06/02 05:48:49;;;;;;;10.95;10.20;;;;;;;;;;5033025;28;20120;-50
2023/06/02 05:51:15;;;;;;;11.77;11.07;;;;;;;;;;5036930;28;20132;-51
2023/06/02 05:53:40;;;;;;;12.73;11.93;;;;;;;;;;5035454;28;21035;-50
2023/06/02 05:56:06;;;;;;;12.27;11.48;;;;;;;;;;5033542;28;20148;-63
2023/06/02 05:58:31;;;;;;;10.93;10.23;;;;;;;;;;5031608;28;20033;-62
2023/06/02 06:00:57;;;;;;;10.70;10.00;;;;;;;;;;5035971;28;20025;-50
2023/06/02 06:03:22;;;;;;;11.00;10.30;;;;;;;;;;5038026;28;20041;-52
2023/06/02 06:05:48;;;;;;;8.90;8.30;;;;;;;;;;5036177;28;20080;-62
2023/06/02 06:08:13;;;;;;;9.38;8.73;;;;;;;;;;5035183;28;20143;-63
2023/06/02 06:10:42;;;;;;;9.13;8.52;;;;;;;;;;5034942;28;20500;-62
2023/06/02 06:13:07;;;;;;;8.35;7.85;;;;;;;;;;5032349;28;20802;-62
2023/06/02 06:15:33;;;;;;;9.75;9.15;;;;;;;;;;5037785;28;20150;-62
2023/06/02 06:17:58;;;;;;;10.25;9.20;;;;;;;;;;5032396;28;20030;-62
2023/06/02 06:20:23;;;;;;;11.57;9.73;;;;;;;;;;5031490;28;20029;-62
2023/06/02 06:22:49;;;;;;;10.20;9.50;;;;;;;;;;5031166;28;20035;-61
2023/06/02 06:25:15;;;;;;;9.07;8.48;;;;;;;;;;5030765;28;20466;-61
2023/06/02 06:27:40;;;;;;;9.70;9.00;;;;;;;;;;5032581;28;20037;-61
2023/06/02 06:30:06;;;;;;;9.52;8.82;;;;;;;;;;5033059;28;20321;-61
2023/06/02 06:32:31;;;;;;;10.57;9.88;;;;;;;;;;5031781;28;20037;-62
2023/06/02 06:34:58;;;;;;;9.70;9.07;;;;;;;;;;5032549;28;20037;-62
2023/06/02 06:37:24;;;;;;;9.50;8.90;;;;;;;;;;5033242;28;20120;-63
2023/06/02 06:39:49;;;;;;;11.85;9.63;;;;;;;;;;5035342;28;20529;-61
2023/06/02 06:42:14;;;;;;;9.82;9.13;;;;;;;;;;5032978;28;20044;-63
2023/06/02 06:44:40;;;;;;;8.98;8.38;;;;;;;;;;5037827;28;20189;-62
2023/06/02 06:47:05;;;;;;;9.75;9.15;;;;;;;;;;5037202;28;20117;-62
2023/06/02 06:49:31;;;;;;;10.65;9.60;;;;;;;;;;5027867;28;20127;-62
2023/06/02 06:51:56;;;;;;;10.13;9.43;;;;;;;;;;5032324;28;20090;-63
2023/06/02 06:54:22;;;;;;;9.32;8.73;;;;;;;;;;5033002;28;20037;-62
2023/06/02 06:56:47;;;;;;;11.18;10.48;;;;;;;;;;5041317;28;20494;-63
2023/06/02 06:59:13;;;;;;;11.15;10.38;;;;;;;;;;5033049;28;20413;-62
2023/06/02 07:01:38;;;;;;;10.98;10.27;;;;;;;;;;5032039;28;20556;-63
2023/06/02 07:04:04;;;;;;;11.30;10.60;;;;;;;;;;5034985;28;20029;-63
2023/06/02 07:06:29;;;;;;;10.82;10.10;;;;;;;;;;5031913;28;20039;-62
2023/06/02 07:08:55;;;;;;;10.82;10.13;;;;;;;;;;5031459;28;20037;-61
2023/06/02 07:11:20;;;;;;;11.23;10.52;;;;;;;;;;5035953;28;20037;-63
2023/06/02 07:13:46;;;;;;;10.98;10.27;;;;;;;;;;5029087;28;20112;-61
2023/06/02 07:16:11;;;;;;;10.60;9.90;;;;;;;;;;5029502;28;20475;-61
2023/06/02 07:18:37;;;;;;;11.07;10.35;;;;;;;;;;5037807;28;20083;-52
2023/06/02 07:21:02;;;;;;;11.00;10.30;;;;;;;;;;5033785;28;20029;-62
2023/06/02 07:23:27;;;;;;;10.52;9.85;;;;;;;;;;5032707;28;20045;-62
2023/06/02 07:25:53;;;;;;;10.48;9.77;;;;;;;;;;5030865;28;20036;-62
2023/06/02 07:28:18;;;;;;;12.00;10.88;;;;;;;;;;5030137;28;20115;-61
2023/06/02 07:30:53;;;;;;;11.45;10.52;;;;;;;;;;5036409;28;20033;-61
2023/06/02 07:33:19;;;;;;;10.80;10.07;;;;;;;;;;5033471;28;20116;-62
2023/06/02 07:35:45;;;;;;;10.50;9.80;;;;;;;;;;5038225;28;20097;-62
2023/06/02 07:38:10;;;;;;;12.40;11.18;;;;;;;;;;5035786;28;20080;-61
2023/06/02 07:40:36;;;;;;;11.15;10.45;;;;;;;;;;5034504;28;20435;-62
2023/06/02 07:43:01;;;;;;;11.30;10.60;;;;;;;;;;5036161;28;20048;-62
2023/06/02 07:45:26;;;;;;;11.38;10.63;;;;;;;;;;5036596;28;20037;-51
2023/06/02 07:47:52;;;;;;;12.07;11.27;;;;;;;;;;5036974;28;20397;-49
2023/06/02 07:50:18;;;;;;;11.32;10.48;;;;;;;;;;5036543;28;20428;-50
2023/06/02 07:52:45;;;;;;;11.25;10.55;;;;;;;;;;5034178;28;20105;-50
2023/06/02 07:55:11;;;;;;;11.07;10.38;;;;;;;;;;5036394;28;20033;-50
2023/06/02 07:57:36;;;;;;;12.10;11.30;;;;;;;;;;5031740;28;20140;-52
2023/06/02 08:00:18;;;;;;;12.05;10.80;;;;;;;;;;5035818;28;20604;-50
2023/06/02 08:02:46;;;;;;;11.93;10.68;;;;;;;;;;5033504;28;20378;-52
2023/06/02 08:05:16;;;;;;;10.88;9.98;;;;;;;;;;5036349;28;20041;-50
2023/06/02 08:07:42;;;;;;;11.57;10.88;;;;;;;;;;5037453;28;20491;-53
2023/06/02 08:10:08;;;;;;;11.40;10.70;;;;;;;;;;5039261;28;20080;-53
2023/06/02 08:12:34;;;;;;;12.20;11.43;;;;;;;;;;5038294;28;20059;-54
2023/06/02 08:15:00;;;;;;;16.05;14.48;;;;;;;;;;5035498;28;20184;-51
2023/06/02 08:17:29;;;;;;;13.05;12.25;;;;;;;;;;5034984;28;20033;-53
2023/06/02 08:20:02;;;;;;;16.83;15.73;;;;;;;;;;5035476;28;20063;-52
2023/06/02 08:22:28;;;;;;;18.27;17.25;;;;;;;;;;5036987;28;20033;-50
2023/06/02 08:24:55;;;;;;;17.58;16.58;;;;;;;;;;5033752;28;20033;-53
2023/06/02 08:27:21;;;;;;;15.77;14.88;;;;;;;;;;5029451;28;20025;-53
2023/06/02 08:29:49;;;;;;;14.07;13.27;;;;;;;;;;5037487;28;20060;-52
2023/06/02 08:32:17;;;;;;;11.73;11.02;;;;;;;;;;5035126;28;20039;-50
2023/06/02 08:34:50;;;;;;;15.57;14.65;;;;;;;;;;5037881;28;20029;-52
2023/06/02 08:37:19;;;;;;;17.95;16.95;;;;;;;;;;5036498;28;20341;-51
2023/06/02 08:39:46;;;;;;;13.35;12.55;;;;;;;;;;5042126;28;20044;-51
2023/06/02 08:42:12;;;;;;;18.98;17.77;;;;;;;;;;5034324;28;20071;-50
2023/06/02 08:44:40;;;;;;;19.67;18.58;;;;;;;;;;5034147;28;20511;-52
2023/06/02 08:47:10;;;;;;;18.63;17.52;;;;;;;;;;5037465;28;20029;-51
2023/06/02 08:49:36;;;;;;;20.90;19.70;;;;;;;;;;5035876;28;20029;-53
2023/06/02 08:52:28;;;;;;;20.02;18.92;;;;;;;;;;5036757;28;20068;-52
2023/06/02 08:54:55;;;;;;;18.92;16.88;;;;;;;;;;5033536;28;20061;-61
2023/06/02 08:57:21;;;;;;;15.35;14.45;;;;;;;;;;5035180;28;20026;-61
2023/06/02 08:59:47;;;;;;;18.60;17.60;;;;;;;;;;5033946;28;20311;-61
2023/06/02 09:02:13;;;;;;;18.13;17.13;;;;;;;;;;5036751;28;20041;-62
2023/06/02 09:04:38;;;;;;;15.85;14.95;;;;;;;;;;5036382;28;20510;-62
2023/06/02 09:07:13;;;;;;;18.02;17.02;;;;;;;;;;5035333;28;20120;-62
2023/06/02 09:09:43;;;;;;;20.00;18.90;;;;;;;;;;5035554;28;20062;-62
2023/06/02 09:12:09;;;;;;;19.25;18.15;;;;;;;;;;5039282;28;20041;-63
2023/06/02 09:14:38;;;;;;;19.55;18.45;;;;;;;;;;5033447;28;20048;-62
2023/06/02 09:17:23;;;;;;;21.35;20.15;;;;;;;;;;5037569;28;20318;-63
2023/06/02 09:19:50;;;;;;;17.95;16.85;;;;;;;;;;5038201;28;20107;-62
2023/06/02 09:22:15;;;;;;;15.80;14.90;;;;;;;;;;5033407;28;20033;-62
2023/06/02 09:24:41;;;;;;;17.42;16.42;;;;;;;;;;5037451;28;20612;-62
2023/06/02 09:27:12;;;;;;;15.55;14.43;;;;;;;;;;5033048;28;20049;-60
2023/06/02 09:29:38;;;;;;;19.02;17.92;;;;;;;;;;5033897;28;20025;-61
2023/06/02 09:32:04;;;;;;;13.93;13.10;;;;;;;;;;5033661;28;20025;-62
2023/06/02 09:34:38;;;;;;;17.45;16.45;;;;;;;;;;5033736;28;20032;-60
2023/06/02 09:37:17;;;;;;;23.58;15.27;;;;;;;;;;5036832;28;20075;-61
2023/06/02 09:39:46;;;;;;;16.80;15.77;;;;;;;;;;5034165;28;20094;-61
2023/06/02 09:42:13;;;;;;;15.85;14.75;;;;;;;;;;5034627;28;20041;-61
2023/06/02 09:44:40;;;;;;;15.30;14.40;;;;;;;;;;5036699;28;20112;-61
2023/06/02 09:47:19;;;;;;;14.40;13.57;;;;;;;;;;5033534;28;20032;-61
2023/06/02 09:49:44;;;;;;;15.70;14.80;;;;;;;;;;5031718;28;20112;-62
2023/06/02 09:52:11;;;;;;;20.02;18.92;;;;;;;;;;5031922;28;20129;-61
2023/06/02 09:54:37;;;;;;;29.27;27.77;;;;;;;;;;5034334;28;20071;-49
2023/06/02 09:57:02;;;;;;;47.58;45.13;;;;;;;;;;5038158;28;20526;-49
2023/06/02 09:59:29;;;;;;;47.15;44.75;;;;;;;;;;5031792;28;20051;-53
2023/06/02 10:01:54;;;;;;;43.22;41.03;;;;;;;;;;5033613;28;20131;-53
2023/06/02 10:04:20;;;;;;;52.13;49.45;;;;;;;;;;5033925;28;20100;-51
2023/06/02 10:07:10;;;;;;;57.42;54.35;;;;;;;;;;5034518;28;20057;-48
2023/06/02 10:09:55;;;;;;;50.33;47.22;;;;;;;;;;5032383;28;20450;-50
2023/06/02 10:12:45;;;;;;;48.83;46.35;;;;;;;;;;5032562;28;20114;-50
2023/06/02 10:15:34;;;;;;;48.45;46.00;;;;;;;;;;5035539;28;20057;-51
2023/06/02 10:18:02;;;;;;;47.67;45.28;;;;;;;;;;5033625;28;20025;-48
2023/06/02 10:20:35;;;;;;;50.30;47.75;;;;;;;;;;5033454;28;20037;-62
2023/06/02 10:23:32;;;;;;;46.22;43.55;;;;;;;;;;5029973;28;20052;-52
2023/06/02 10:26:10;;;;;;;51.65;48.72;;;;;;;;;;5030943;28;20151;-51
2023/06/02 10:28:36;;;;;;;49.85;47.30;;;;;;;;;;5032416;28;20128;-53
2023/06/02 10:31:10;;;;;;;50.75;48.15;;;;;;;;;;5030810;28;20728;-54
2023/06/02 10:33:45;;;;;;;35.95;34.10;;;;;;;;;;5031416;28;20362;-61
2023/06/02 10:36:13;;;;;;;43.55;41.25;;;;;;;;;;5031077;28;20043;-52
2023/06/02 10:38:39;;;;;;;38.67;36.65;;;;;;;;;;5033741;28;20021;-51
2023/06/02 10:41:05;;;;;;;42.65;40.42;;;;;;;;;;5033257;28;20041;-51
2023/06/02 10:43:33;;;;;;;57.95;55.05;;;;;;;;;;5034910;28;20037;-52
2023/06/02 10:46:20;;;;;;;47.75;45.22;;;;;;;;;;5032075;28;20048;-50
2023/06/02 10:48:47;;;;;;;44.80;42.53;;;;;;;;;;5031811;28;20098;-51
2023/06/02 10:51:12;;;;;;;42.55;40.38;;;;;;;;;;5030935;28;20079;-50
2023/06/02 10:53:58;;;;;;;46.95;44.08;;;;;;;;;;5035688;28;20382;-48
2023/06/02 10:56:35;;;;;;;34.30;32.47;;;;;;;;;;5032042;28;20544;-47
2023/06/02 10:59:04;;;;;;;29.13;27.58;;;;;;;;;;5034840;28;20037;-51
2023/06/02 11:01:49;;;;;;;33.05;31.35;;;;;;;;;;5032691;28;20044;-53
2023/06/02 11:04:38;;;;;;;33.13;31.10;;;;;;;;;;5032802;28;20069;-60
2023/06/02 11:07:18;;;;;;;31.48;29.85;;;;;;;;;;5035107;28;20118;-48
2023/06/02 11:09:47;;;;;;;50.57;48.03;;;;;;;;;;5030681;28;20122;-49
2023/06/02 11:12:13;;;;;;;40.87;38.77;;;;;;;;;;5032551;28;20029;-51
2023/06/02 11:15:12;;;;;;;35.80;33.92;;;;;;;;;;5036683;28;20279;-51
2023/06/02 11:17:37;;;;;;;31.75;30.13;;;;;;;;;;5032782;28;20547;-59
2023/06/02 11:20:06;;;;;;;35.15;33.30;;;;;;;;;;5029554;28;20128;-60
2023/06/02 11:22:36;;;;;;;36.67;34.75;;;;;;;;;;5030479;28;20095;-59
2023/06/02 11:25:02;;;;;;;36.03;34.10;;;;;;;;;;5030908;28;20026;-60
2023/06/02 11:27:44;;;;;;;31.13;29.48;;;;;;;;;;5032180;28;20545;-60
2023/06/02 11:30:18;;;;;;;33.45;31.73;;;;;;;;;;5027891;28;20070;-61
2023/06/02 11:32:52;;;;;;;29.85;28.27;;;;;;;;;;5036116;28;20359;-51
2023/06/02 11:35:25;;;;;;;39.33;37.33;;;;;;;;;;5033945;28;20064;-50
2023/06/02 11:38:06;;;;;;;31.35;29.75;;;;;;;;;;5031067;28;20411;-50
2023/06/02 11:40:33;;;;;;;30.08;27.90;;;;;;;;;;5031580;28;20229;-51
2023/06/02 11:42:59;;;;;;;33.97;32.22;;;;;;;;;;5033561;28;20056;-47
2023/06/02 11:45:25;;;;;;;32.47;30.67;;;;;;;;;;5033280;28;20037;-48
2023/06/02 11:48:05;;;;;;;35.13;32.88;;;;;;;;;;5030996;28;20033;-62
2023/06/02 11:50:31;;;;;;;30.13;28.50;;;;;;;;;;5030821;28;20029;-61
2023/06/02 11:52:57;;;;;;;33.90;32.13;;;;;;;;;;5036779;28;20283;-62
2023/06/02 11:55:28;;;;;;;32.10;30.42;;;;;;;;;;5034621;28;20033;-51
2023/06/02 11:58:16;;;;;;;34.05;32.25;;;;;;;;;;5036763;28;20034;-62
2023/06/02 12:00:41;;;;;;;33.75;31.73;;;;;;;;;;5030903;28;20513;-51
2023/06/02 12:03:07;;;;;;;34.55;32.65;;;;;;;;;;5035217;28;20176;-62
2023/06/02 12:05:34;;;;;;;30.10;28.55;;;;;;;;;;5030017;28;20030;-62
2023/06/02 12:08:14;;;;;;;31.58;29.75;;;;;;;;;;5028836;28;20030;-62
2023/06/02 12:10:40;;;;;;;33.03;31.13;;;;;;;;;;5032409;28;20048;-64
2023/06/02 12:13:05;;;;;;;32.65;30.90;;;;;;;;;;5032124;28;20057;-62
2023/06/02 12:15:35;;;;;;;38.20;36.22;;;;;;;;;;5029679;28;20493;-62
2023/06/02 12:18:04;;;;;;;34.80;32.50;;;;;;;;;;5034382;28;20040;-61
2023/06/02 12:20:48;;;;;;;34.57;32.77;;;;;;;;;;5024247;28;20041;-62
2023/06/02 12:23:13;;;;;;;36.88;34.95;;;;;;;;;;5030146;28;20376;-62
2023/06/02 12:25:39;;;;;;;31.55;29.45;;;;;;;;;;5028702;28;20420;-61
2023/06/02 12:28:10;;;;;;;30.52;28.92;;;;;;;;;;5029253;28;20628;-61
2023/06/02 12:30:36;;;;;;;31.23;29.60;;;;;;;;;;5032664;28;20094;-53
2023/06/02 12:33:12;;;;;;;30.58;28.98;;;;;;;;;;5031642;28;20040;-61
2023/06/02 12:35:39;;;;;;;39.45;37.40;;;;;;;;;;5033333;28;20041;-50
2023/06/02 12:38:05;;;;;;;36.83;34.95;;;;;;;;;;5031720;28;20033;-52
2023/06/02 12:40:35;;;;;;;32.90;31.20;;;;;;;;;;5031606;28;20075;-61
2023/06/02 12:43:00;;;;;;;42.47;40.10;;;;;;;;;;5038615;28;20040;-51
2023/06/02 12:45:26;;;;;;;31.85;30.17;;;;;;;;;;5035853;28;20037;-53
2023/06/02 12:47:52;;;;;;;41.60;39.47;;;;;;;;;;5034751;28;20759;-52
2023/06/02 12:50:21;;;;;;;30.58;28.98;;;;;;;;;;5036972;28;20037;-61
2023/06/02 12:52:47;;;;;;;37.55;35.50;;;;;;;;;;5044329;28;20024;-62
2023/06/02 12:55:13;;;;;;;31.48;29.75;;;;;;;;;;5035464;28;20048;-53
2023/06/02 12:57:39;;;;;;;29.20;27.70;;;;;;;;;;5035750;28;20028;-61
2023/06/02 13:00:05;;;;;;;29.30;27.75;;;;;;;;;;5034504;28;20039;-60
2023/06/02 13:02:30;;;;;;;32.58;30.85;;;;;;;;;;5033193;28;20117;-61
2023/06/02 13:04:56;;;;;;;37.85;35.92;;;;;;;;;;5034404;28;20037;-62
2023/06/02 13:07:21;;;;;;;29.58;27.98;;;;;;;;;;5035754;28;20064;-62
2023/06/02 13:09:47;;;;;;;33.45;31.75;;;;;;;;;;5033238;28;20040;-61
2023/06/02 13:12:13;;;;;;;29.63;28.05;;;;;;;;;;5038246;28;20036;-62
2023/06/02 13:14:38;;;;;;;29.02;27.48;;;;;;;;;;5034432;28;20042;-64
2023/06/02 13:17:05;;;;;;;29.45;27.90;;;;;;;;;;5031962;28;20082;-60
2023/06/02 13:19:30;;;;;;;32.45;30.67;;;;;;;;;;5032524;28;21434;-61
2023/06/02 13:21:56;;;;;;;31.92;30.23;;;;;;;;;;5037669;28;20025;-59
2023/06/02 13:24:22;;;;;;;30.00;28.42;;;;;;;;;;5046012;28;20332;-61
2023/06/02 13:26:48;;;;;;;32.33;30.63;;;;;;;;;;5036397;28;20124;-51
2023/06/02 13:29:14;;;;;;;30.77;29.17;;;;;;;;;;5033940;28;20140;-52
2023/06/02 13:31:39;;;;;;;28.60;27.10;;;;;;;;;;5031356;28;20108;-51
2023/06/02 13:34:05;;;;;;;32.55;30.85;;;;;;;;;;5034669;28;20044;-49
2023/06/02 13:36:30;;;;;;;33.80;31.85;;;;;;;;;;5037349;28;20040;-48
2023/06/02 13:38:56;;;;;;;28.38;26.90;;;;;;;;;;5035460;28;20045;-60
2023/06/02 13:41:21;;;;;;;32.50;30.80;;;;;;;;;;5035046;28;20041;-58
2023/06/02 13:43:47;;;;;;;32.13;30.45;;;;;;;;;;5037261;28;20032;-60
2023/06/02 13:46:12;;;;;;;30.20;28.60;;;;;;;;;;5033193;28;20073;-60
2023/06/02 13:48:38;;;;;;;33.17;31.38;;;;;;;;;;5034347;28;20116;-60
2023/06/02 13:51:03;;;;;;;32.13;30.42;;;;;;;;;;5041954;28;20144;-59
2023/06/02 13:53:29;;;;;;;34.35;32.03;;;;;;;;;;5034222;28;20438;-59
2023/06/02 13:55:54;;;;;;;32.90;31.13;;;;;;;;;;5034953;28;20215;-58
2023/06/02 13:58:20;;;;;;;34.60;32.80;;;;;;;;;;5031404;28;20095;-58
2023/06/02 14:00:46;;;;;;;31.67;29.98;;;;;;;;;;5033825;28;20025;-59
2023/06/02 14:03:11;;;;;;;32.33;30.63;;;;;;;;;;5033671;28;20581;-63
2023/06/02 14:05:37;;;;;;;33.95;32.17;;;;;;;;;;5033008;28;20125;-60
2023/06/02 14:08:02;;;;;;;31.25;29.60;;;;;;;;;;5030075;28;20034;-60
2023/06/02 14:10:28;;;;;;;34.40;32.60;;;;;;;;;;5035830;28;20029;-60
2023/06/02 14:12:53;;;;;;;32.65;30.65;;;;;;;;;;5036529;28;20037;-60
2023/06/02 14:15:19;;;;;;;35.63;33.80;;;;;;;;;;5037081;28;20443;-60
2023/06/02 14:17:44;;;;;;;31.73;30.05;;;;;;;;;;5032478;28;20104;-61
2023/06/02 14:20:10;;;;;;;36.45;34.47;;;;;;;;;;5032039;28;20040;-60
2023/06/02 14:22:36;;;;;;;32.72;31.02;;;;;;;;;;5032957;28;20063;-61